sensor_id;sensor_type;location;lat;lon;timestamp;P1;durP1;ratioP1;P2;durP2;ratioP2
21120;SDS011;12519;43.318;21.898;2022-11-20T00:00:10;34.0;;;26.0;;
21120;SDS011;12519;43.318;21.898;2022-11-20T00:04:51;34.0;;;26.0;;
21120;SDS011;12519;43.318;21.898;2022-11-20T00:09:27;34.0;;;28.0;;
21120;SDS011;12519;43.318;21.898;2022-11-20T00:14:04;34.0;;;28.0;;
21120;SDS011;12519;43.318;21.898;2022-11-20T00:18:41;34.0;;;30.0;;
21120;SDS011;12519;43.318;21.898;2022-11-20T00:23:20;34.0;;;30.0;;
21120;SDS011;12519;43.318;21.898;2022-11-20T00:27:56;34.0;;;29.0;;
21120;SDS011;12519;43.318;21.898;2022-11-20T00:32:33;34.0;;;29.0;;
21120;SDS011;12519;43.318;21.898;2022-11-20T00:37:10;34.0;;;28.0;;
21120;SDS011;12519;43.318;21.898;2022-11-20T00:41:47;34.0;;;28.0;;
21120;SDS011;12519;43.318;21.898;2022-11-20T00:46:27;34.0;;;28.0;;
21120;SDS011;12519;43.318;21.898;2022-11-20T00:51:05;33.0;;;28.0;;
21120;SDS011;12519;43.318;21.898;2022-11-20T00:55:42;33.0;;;28.0;;
21120;SDS011;12519;43.318;21.898;2022-11-20T01:00:19;32.0;;;27.0;;
21120;SDS011;12519;43.318;21.898;2022-11-20T01:04:55;32.0;;;27.0;;
21120;SDS011;12519;43.318;21.898;2022-11-20T01:09:32;28.0;;;26.0;;
21120;SDS011;12519;43.318;21.898;2022-11-20T01:14:16;28.0;;;26.0;;
21120;SDS011;12519;43.318;21.898;2022-11-20T01:19:00;25.0;;;24.0;;
21120;SDS011;12519;43.318;21.898;2022-11-20T01:23:49;25.0;;;24.0;;
21120;SDS011;12519;43.318;21.898;2022-11-20T01:28:29;26.0;;;24.0;;
21120;SDS011;12519;43.318;21.898;2022-11-20T01:33:08;26.0;;;24.0;;
21120;SDS011;12519;43.318;21.898;2022-11-20T01:37:45;26.0;;;25.0;;
21120;SDS011;12519;43.318;21.898;2022-11-20T01:42:22;26.0;;;25.0;;
21120;SDS011;12519;43.318;21.898;2022-11-20T01:47:06;26.0;;;24.0;;
21120;SDS011;12519;43.318;21.898;2022-11-20T01:52:01;26.0;;;24.0;;
21120;SDS011;12519;43.318;21.898;2022-11-20T01:56:59;26.0;;;24.0;;
21120;SDS011;12519;43.318;21.898;2022-11-20T02:01:37;25.0;;;22.0;;
21120;SDS011;12519;43.318;21.898;2022-11-20T02:06:24;25.0;;;22.0;;
21120;SDS011;12519;43.318;21.898;2022-11-20T02:11:06;28.0;;;23.0;;
21120;SDS011;12519;43.318;21.898;2022-11-20T02:15:45;28.0;;;23.0;;
21120;SDS011;12519;43.318;21.898;2022-11-20T02:20:23;30.0;;;24.0;;
21120;SDS011;12519;43.318;21.898;2022-11-20T02:25:03;30.0;;;24.0;;
21120;SDS011;12519;43.318;21.898;2022-11-20T02:29:55;28.0;;;23.0;;
21120;SDS011;12519;43.318;21.898;2022-11-20T02:34:41;28.0;;;23.0;;
21120;SDS011;12519;43.318;21.898;2022-11-20T02:39:20;25.0;;;22.0;;
21120;SDS011;12519;43.318;21.898;2022-11-20T02:44:05;25.0;;;22.0;;
21120;SDS011;12519;43.318;21.898;2022-11-20T02:48:42;30.0;;;25.0;;
21120;SDS011;12519;43.318;21.898;2022-11-20T02:53:18;30.0;;;25.0;;
21120;SDS011;12519;43.318;21.898;2022-11-20T02:57:55;34.0;;;28.0;;
21120;SDS011;12519;43.318;21.898;2022-11-20T03:02:32;34.0;;;28.0;;
21120;SDS011;12519;43.318;21.898;2022-11-20T03:07:10;34.0;;;28.0;;
21120;SDS011;12519;43.318;21.898;2022-11-20T03:11:47;24.0;;;20.0;;
21120;SDS011;12519;43.318;21.898;2022-11-20T03:16:23;24.0;;;20.0;;
21120;SDS011;12519;43.318;21.898;2022-11-20T03:21:00;14.0;;;13.0;;
21120;SDS011;12519;43.318;21.898;2022-11-20T03:25:37;14.0;;;13.0;;
21120;SDS011;12519;43.318;21.898;2022-11-20T03:30:14;14.0;;;12.0;;
21120;SDS011;12519;43.318;21.898;2022-11-20T03:34:50;14.0;;;12.0;;
21120;SDS011;12519;43.318;21.898;2022-11-20T03:39:27;14.0;;;11.0;;
21120;SDS011;12519;43.318;21.898;2022-11-20T03:44:09;14.0;;;11.0;;
21120;SDS011;12519;43.318;21.898;2022-11-20T03:48:48;12.0;;;10.0;;
21120;SDS011;12519;43.318;21.898;2022-11-20T03:53:26;12.0;;;10.0;;
21120;SDS011;12519;43.318;21.898;2022-11-20T03:58:03;11.0;;;9.0;;
21120;SDS011;12519;43.318;21.898;2022-11-20T04:02:40;11.0;;;9.0;;
21120;SDS011;12519;43.318;21.898;2022-11-20T04:07:17;11.0;;;9.0;;
21120;SDS011;12519;43.318;21.898;2022-11-20T04:11:54;10.0;;;8.0;;
21120;SDS011;12519;43.318;21.898;2022-11-20T04:16:36;10.0;;;8.0;;
21120;SDS011;12519;43.318;21.898;2022-11-20T04:21:13;8.0;;;8.0;;
21120;SDS011;12519;43.318;21.898;2022-11-20T04:25:49;8.0;;;8.0;;
21120;SDS011;12519;43.318;21.898;2022-11-20T04:30:26;10.0;;;8.0;;
21120;SDS011;12519;43.318;21.898;2022-11-20T04:35:03;10.0;;;8.0;;
21120;SDS011;12519;43.318;21.898;2022-11-20T04:39:41;11.0;;;8.0;;
21120;SDS011;12519;43.318;21.898;2022-11-20T04:44:19;11.0;;;8.0;;
21120;SDS011;12519;43.318;21.898;2022-11-20T04:48:56;9.0;;;7.0;;
21120;SDS011;12519;43.318;21.898;2022-11-20T04:53:33;9.0;;;7.0;;
21120;SDS011;12519;43.318;21.898;2022-11-20T04:58:11;7.0;;;6.0;;
21120;SDS011;12519;43.318;21.898;2022-11-20T05:02:49;7.0;;;6.0;;
21120;SDS011;12519;43.318;21.898;2022-11-20T05:07:26;7.0;;;6.0;;
21120;SDS011;12519;43.318;21.898;2022-11-20T05:12:04;6.0;;;5.0;;
21120;SDS011;12519;43.318;21.898;2022-11-20T05:16:45;6.0;;;5.0;;
21120;SDS011;12519;43.318;21.898;2022-11-20T05:21:22;5.0;;;4.0;;
21120;SDS011;12519;43.318;21.898;2022-11-20T05:26:01;5.0;;;4.0;;
21120;SDS011;12519;43.318;21.898;2022-11-20T05:30:41;4.0;;;4.0;;
21120;SDS011;12519;43.318;21.898;2022-11-20T05:35:18;4.0;;;4.0;;
21120;SDS011;12519;43.318;21.898;2022-11-20T05:39:54;4.0;;;3.0;;
21120;SDS011;12519;43.318;21.898;2022-11-20T05:44:31;4.0;;;3.0;;
21120;SDS011;12519;43.318;21.898;2022-11-20T05:49:08;4.0;;;4.0;;
21120;SDS011;12519;43.318;21.898;2022-11-20T05:53:45;4.0;;;4.0;;
21120;SDS011;12519;43.318;21.898;2022-11-20T05:58:22;5.0;;;4.0;;
21120;SDS011;12519;43.318;21.898;2022-11-20T06:02:59;5.0;;;4.0;;
21120;SDS011;12519;43.318;21.898;2022-11-20T06:07:36;5.0;;;4.0;;
21120;SDS011;12519;43.318;21.898;2022-11-20T06:12:12;6.0;;;4.0;;
21120;SDS011;12519;43.318;21.898;2022-11-20T06:16:49;6.0;;;4.0;;
21120;SDS011;12519;43.318;21.898;2022-11-20T06:21:26;6.0;;;4.0;;
21120;SDS011;12519;43.318;21.898;2022-11-20T06:26:07;6.0;;;4.0;;
21120;SDS011;12519;43.318;21.898;2022-11-20T06:30:51;6.0;;;4.0;;
21120;SDS011;12519;43.318;21.898;2022-11-20T06:35:28;6.0;;;4.0;;
21120;SDS011;12519;43.318;21.898;2022-11-20T06:40:08;6.0;;;5.0;;
21120;SDS011;12519;43.318;21.898;2022-11-20T06:44:48;6.0;;;5.0;;
21120;SDS011;12519;43.318;21.898;2022-11-20T06:49:25;8.0;;;7.0;;
21120;SDS011;12519;43.318;21.898;2022-11-20T06:54:02;8.0;;;7.0;;
21120;SDS011;12519;43.318;21.898;2022-11-20T06:58:40;10.0;;;9.0;;
21120;SDS011;12519;43.318;21.898;2022-11-20T07:03:17;10.0;;;9.0;;
21120;SDS011;12519;43.318;21.898;2022-11-20T07:07:56;12.0;;;11.0;;
21120;SDS011;12519;43.318;21.898;2022-11-20T07:12:32;12.0;;;11.0;;
21120;SDS011;12519;43.318;21.898;2022-11-20T07:17:09;12.0;;;11.0;;
21120;SDS011;12519;43.318;21.898;2022-11-20T07:21:45;14.0;;;13.0;;
21120;SDS011;12519;43.318;21.898;2022-11-20T07:26:21;14.0;;;13.0;;
21120;SDS011;12519;43.318;21.898;2022-11-20T07:30:58;12.0;;;11.0;;
21120;SDS011;12519;43.318;21.898;2022-11-20T07:35:34;12.0;;;11.0;;
21120;SDS011;12519;43.318;21.898;2022-11-20T07:40:12;10.0;;;9.0;;
21120;SDS011;12519;43.318;21.898;2022-11-20T07:44:49;10.0;;;9.0;;
21120;SDS011;12519;43.318;21.898;2022-11-20T07:49:26;10.0;;;9.0;;
21120;SDS011;12519;43.318;21.898;2022-11-20T07:54:03;10.0;;;9.0;;
21120;SDS011;12519;43.318;21.898;2022-11-20T08:12:30;44.0;;;36.0;;
21120;SDS011;12519;43.318;21.898;2022-11-20T08:17:06;44.0;;;36.0;;
21120;SDS011;12519;43.318;21.898;2022-11-20T08:21:44;44.0;;;36.0;;
21120;SDS011;12519;43.318;21.898;2022-11-20T08:26:22;44.0;;;36.0;;
21120;SDS011;12519;43.318;21.898;2022-11-20T08:31:01;32.0;;;28.0;;
21120;SDS011;12519;43.318;21.898;2022-11-20T08:35:39;32.0;;;28.0;;
21120;SDS011;12519;43.318;21.898;2022-11-20T08:40:16;21.0;;;19.0;;
21120;SDS011;12519;43.318;21.898;2022-11-20T08:44:52;21.0;;;19.0;;
21120;SDS011;12519;43.318;21.898;2022-11-20T08:49:28;30.0;;;27.0;;
21120;SDS011;12519;43.318;21.898;2022-11-20T08:54:06;30.0;;;27.0;;
21120;SDS011;12519;43.318;21.898;2022-11-20T08:58:44;38.0;;;35.0;;
21120;SDS011;12519;43.318;21.898;2022-11-20T09:03:22;38.0;;;35.0;;
21120;SDS011;12519;43.318;21.898;2022-11-20T09:08:00;38.0;;;35.0;;
21120;SDS011;12519;43.318;21.898;2022-11-20T09:12:36;38.0;;;34.0;;
21120;SDS011;12519;43.318;21.898;2022-11-20T09:17:13;38.0;;;34.0;;
21120;SDS011;12519;43.318;21.898;2022-11-20T09:21:50;37.0;;;33.0;;
21120;SDS011;12519;43.318;21.898;2022-11-20T09:26:27;37.0;;;33.0;;
21120;SDS011;12519;43.318;21.898;2022-11-20T09:31:07;37.0;;;32.0;;
21120;SDS011;12519;43.318;21.898;2022-11-20T09:35:52;37.0;;;32.0;;
21120;SDS011;12519;43.318;21.898;2022-11-20T09:40:29;37.0;;;32.0;;
21120;SDS011;12519;43.318;21.898;2022-11-20T09:45:30;37.0;;;32.0;;
21120;SDS011;12519;43.318;21.898;2022-11-20T09:50:36;30.0;;;27.0;;
21120;SDS011;12519;43.318;21.898;2022-11-20T09:55:19;30.0;;;27.0;;
21120;SDS011;12519;43.318;21.898;2022-11-20T10:00:04;24.0;;;22.0;;
21120;SDS011;12519;43.318;21.898;2022-11-20T10:05:05;24.0;;;22.0;;
21120;SDS011;12519;43.318;21.898;2022-11-20T10:09:56;29.0;;;27.0;;
21120;SDS011;12519;43.318;21.898;2022-11-20T10:15:09;29.0;;;27.0;;
21120;SDS011;12519;43.318;21.898;2022-11-20T10:20:20;34.0;;;32.0;;
21120;SDS011;12519;43.318;21.898;2022-11-20T10:25:16;34.0;;;32.0;;
21120;SDS011;12519;43.318;21.898;2022-11-20T10:30:10;36.0;;;32.0;;
21120;SDS011;12519;43.318;21.898;2022-11-20T10:35:05;36.0;;;32.0;;
21120;SDS011;12519;43.318;21.898;2022-11-20T10:40:23;38.0;;;31.0;;
21120;SDS011;12519;43.318;21.898;2022-11-20T10:45:45;38.0;;;31.0;;
21120;SDS011;12519;43.318;21.898;2022-11-20T10:51:10;34.0;;;27.0;;
21120;SDS011;12519;43.318;21.898;2022-11-20T10:56:30;34.0;;;27.0;;
21120;SDS011;12519;43.318;21.898;2022-11-20T11:01:22;29.0;;;23.0;;
21120;SDS011;12519;43.318;21.898;2022-11-20T11:06:17;29.0;;;23.0;;
21120;SDS011;12519;43.318;21.898;2022-11-20T11:11:25;32.0;;;26.0;;
21120;SDS011;12519;43.318;21.898;2022-11-20T11:16:25;32.0;;;26.0;;
21120;SDS011;12519;43.318;21.898;2022-11-20T11:21:05;35.0;;;28.0;;
21120;SDS011;12519;43.318;21.898;2022-11-20T11:25:41;35.0;;;28.0;;
21120;SDS011;12519;43.318;21.898;2022-11-20T11:30:22;60.0;;;46.0;;
21120;SDS011;12519;43.318;21.898;2022-11-20T11:35:04;60.0;;;46.0;;
21120;SDS011;12519;43.318;21.898;2022-11-20T11:39:57;85.0;;;63.0;;
21120;SDS011;12519;43.318;21.898;2022-11-20T11:44:35;85.0;;;63.0;;
21120;SDS011;12519;43.318;21.898;2022-11-20T11:49:19;72.0;;;58.0;;
21120;SDS011;12519;43.318;21.898;2022-11-20T11:54:03;72.0;;;58.0;;
21120;SDS011;12519;43.318;21.898;2022-11-20T11:59:06;58.0;;;53.0;;
21120;SDS011;12519;43.318;21.898;2022-11-20T12:04:23;58.0;;;53.0;;
21120;SDS011;12519;43.318;21.898;2022-11-20T12:09:49;62.0;;;54.0;;
21120;SDS011;12519;43.318;21.898;2022-11-20T12:14:41;62.0;;;54.0;;
21120;SDS011;12519;43.318;21.898;2022-11-20T12:19:26;66.0;;;55.0;;
21120;SDS011;12519;43.318;21.898;2022-11-20T12:24:52;66.0;;;55.0;;
21120;SDS011;12519;43.318;21.898;2022-11-20T12:29:59;66.0;;;56.0;;
21120;SDS011;12519;43.318;21.898;2022-11-20T12:35:00;66.0;;;56.0;;
21120;SDS011;12519;43.318;21.898;2022-11-20T12:39:50;65.0;;;58.0;;
21120;SDS011;12519;43.318;21.898;2022-11-20T12:45:18;65.0;;;58.0;;
21120;SDS011;12519;43.318;21.898;2022-11-20T12:50:30;75.0;;;64.0;;
21120;SDS011;12519;43.318;21.898;2022-11-20T12:55:43;75.0;;;64.0;;
21120;SDS011;12519;43.318;21.898;2022-11-20T13:00:26;85.0;;;71.0;;
21120;SDS011;12519;43.318;21.898;2022-11-20T13:05:25;85.0;;;71.0;;
21120;SDS011;12519;43.318;21.898;2022-11-20T13:10:43;78.0;;;68.0;;
21120;SDS011;12519;43.318;21.898;2022-11-20T13:15:55;78.0;;;68.0;;
21120;SDS011;12519;43.318;21.898;2022-11-20T13:20:46;72.0;;;66.0;;
21120;SDS011;12519;43.318;21.898;2022-11-20T13:25:28;72.0;;;66.0;;
21120;SDS011;12519;43.318;21.898;2022-11-20T13:30:21;72.0;;;62.0;;
21120;SDS011;12519;43.318;21.898;2022-11-20T13:35:05;72.0;;;62.0;;
21120;SDS011;12519;43.318;21.898;2022-11-20T13:39:45;73.0;;;58.0;;
21120;SDS011;12519;43.318;21.898;2022-11-20T13:44:37;73.0;;;58.0;;
21120;SDS011;12519;43.318;21.898;2022-11-20T13:49:33;66.0;;;50.0;;
21120;SDS011;12519;43.318;21.898;2022-11-20T13:55:22;66.0;;;50.0;;
21120;SDS011;12519;43.318;21.898;2022-11-20T14:00:20;58.0;;;42.0;;
21120;SDS011;12519;43.318;21.898;2022-11-20T14:05:04;58.0;;;42.0;;
21120;SDS011;12519;43.318;21.898;2022-11-20T14:09:56;56.0;;;44.0;;
21120;SDS011;12519;43.318;21.898;2022-11-20T14:14:34;56.0;;;44.0;;
21120;SDS011;12519;43.318;21.898;2022-11-20T14:19:29;53.0;;;47.0;;
21120;SDS011;12519;43.318;21.898;2022-11-20T14:24:12;53.0;;;47.0;;
21120;SDS011;12519;43.318;21.898;2022-11-20T14:28:55;50.0;;;46.0;;
21120;SDS011;12519;43.318;21.898;2022-11-20T14:33:36;50.0;;;46.0;;
21120;SDS011;12519;43.318;21.898;2022-11-20T14:38:22;50.0;;;46.0;;
21120;SDS011;12519;43.318;21.898;2022-11-20T14:43:23;48.0;;;44.0;;
21120;SDS011;12519;43.318;21.898;2022-11-20T14:48:05;48.0;;;44.0;;
21120;SDS011;12519;43.318;21.898;2022-11-20T14:52:55;44.0;;;37.0;;
21120;SDS011;12519;43.318;21.898;2022-11-20T14:57:37;44.0;;;37.0;;
21120;SDS011;12519;43.318;21.898;2022-11-20T15:02:18;39.0;;;30.0;;
21120;SDS011;12519;43.318;21.898;2022-11-20T15:06:59;39.0;;;30.0;;
21120;SDS011;12519;43.318;21.898;2022-11-20T15:11:36;38.0;;;30.0;;
21120;SDS011;12519;43.318;21.898;2022-11-20T15:16:22;38.0;;;30.0;;
21120;SDS011;12519;43.318;21.898;2022-11-20T15:21:11;37.0;;;30.0;;
21120;SDS011;12519;43.318;21.898;2022-11-20T15:25:50;37.0;;;30.0;;
21120;SDS011;12519;43.318;21.898;2022-11-20T15:30:26;40.0;;;35.0;;
21120;SDS011;12519;43.318;21.898;2022-11-20T15:35:04;40.0;;;35.0;;
21120;SDS011;12519;43.318;21.898;2022-11-20T15:39:42;43.0;;;40.0;;
21120;SDS011;12519;43.318;21.898;2022-11-20T15:44:18;43.0;;;40.0;;
21120;SDS011;12519;43.318;21.898;2022-11-20T15:49:00;46.0;;;39.0;;
21120;SDS011;12519;43.318;21.898;2022-11-20T15:53:37;46.0;;;39.0;;
21120;SDS011;12519;43.318;21.898;2022-11-20T15:58:15;46.0;;;39.0;;
21120;SDS011;12519;43.318;21.898;2022-11-20T16:02:52;48.0;;;38.0;;
21120;SDS011;12519;43.318;21.898;2022-11-20T16:07:29;48.0;;;38.0;;
21120;SDS011;12519;43.318;21.898;2022-11-20T16:12:09;50.0;;;43.0;;
21120;SDS011;12519;43.318;21.898;2022-11-20T16:16:46;50.0;;;43.0;;
21120;SDS011;12519;43.318;21.898;2022-11-20T16:21:24;53.0;;;48.0;;
21120;SDS011;12519;43.318;21.898;2022-11-20T16:26:13;53.0;;;48.0;;
21120;SDS011;12519;43.318;21.898;2022-11-20T16:30:52;48.0;;;44.0;;
21120;SDS011;12519;43.318;21.898;2022-11-20T16:35:31;48.0;;;44.0;;
21120;SDS011;12519;43.318;21.898;2022-11-20T16:40:11;43.0;;;39.0;;
21120;SDS011;12519;43.318;21.898;2022-11-20T16:44:48;43.0;;;39.0;;
21120;SDS011;12519;43.318;21.898;2022-11-20T16:49:24;36.0;;;32.0;;
21120;SDS011;12519;43.318;21.898;2022-11-20T16:54:02;36.0;;;32.0;;
21120;SDS011;12519;43.318;21.898;2022-11-20T16:58:40;36.0;;;32.0;;
21120;SDS011;12519;43.318;21.898;2022-11-20T17:03:18;28.0;;;25.0;;
21120;SDS011;12519;43.318;21.898;2022-11-20T17:07:54;28.0;;;25.0;;
21120;SDS011;12519;43.318;21.898;2022-11-20T17:12:31;26.0;;;24.0;;
21120;SDS011;12519;43.318;21.898;2022-11-20T17:17:08;26.0;;;24.0;;
21120;SDS011;12519;43.318;21.898;2022-11-20T17:21:45;25.0;;;23.0;;
21120;SDS011;12519;43.318;21.898;2022-11-20T17:26:23;25.0;;;23.0;;
21120;SDS011;12519;43.318;21.898;2022-11-20T17:31:01;24.0;;;22.0;;
21120;SDS011;12519;43.318;21.898;2022-11-20T17:35:44;24.0;;;22.0;;
21120;SDS011;12519;43.318;21.898;2022-11-20T17:40:20;23.0;;;20.0;;
21120;SDS011;12519;43.318;21.898;2022-11-20T17:44:57;23.0;;;20.0;;
21120;SDS011;12519;43.318;21.898;2022-11-20T17:49:34;26.0;;;22.0;;
21120;SDS011;12519;43.318;21.898;2022-11-20T17:54:10;26.0;;;22.0;;
21120;SDS011;12519;43.318;21.898;2022-11-20T17:58:47;26.0;;;22.0;;
21120;SDS011;12519;43.318;21.898;2022-11-20T18:03:24;29.0;;;24.0;;
21120;SDS011;12519;43.318;21.898;2022-11-20T18:08:00;29.0;;;24.0;;
21120;SDS011;12519;43.318;21.898;2022-11-20T18:12:37;30.0;;;26.0;;
21120;SDS011;12519;43.318;21.898;2022-11-20T18:17:15;30.0;;;26.0;;
21120;SDS011;12519;43.318;21.898;2022-11-20T18:21:52;31.0;;;27.0;;
21120;SDS011;12519;43.318;21.898;2022-11-20T18:26:29;31.0;;;27.0;;
21120;SDS011;12519;43.318;21.898;2022-11-20T18:31:08;26.0;;;22.0;;
21120;SDS011;12519;43.318;21.898;2022-11-20T18:35:46;26.0;;;22.0;;
21120;SDS011;12519;43.318;21.898;2022-11-20T18:40:23;20.0;;;18.0;;
21120;SDS011;12519;43.318;21.898;2022-11-20T18:45:01;20.0;;;18.0;;
21120;SDS011;12519;43.318;21.898;2022-11-20T18:49:40;20.0;;;18.0;;
21120;SDS011;12519;43.318;21.898;2022-11-20T18:54:18;20.0;;;18.0;;
21120;SDS011;12519;43.318;21.898;2022-11-20T18:58:57;20.0;;;18.0;;
21120;SDS011;12519;43.318;21.898;2022-11-20T19:03:34;21.0;;;18.0;;
21120;SDS011;12519;43.318;21.898;2022-11-20T19:08:11;21.0;;;18.0;;
21120;SDS011;12519;43.318;21.898;2022-11-20T19:12:48;17.0;;;14.0;;
21120;SDS011;12519;43.318;21.898;2022-11-20T19:17:24;17.0;;;14.0;;
21120;SDS011;12519;43.318;21.898;2022-11-20T19:22:01;13.0;;;10.0;;
21120;SDS011;12519;43.318;21.898;2022-11-20T19:26:38;13.0;;;10.0;;
21120;SDS011;12519;43.318;21.898;2022-11-20T19:31:19;14.0;;;11.0;;
21120;SDS011;12519;43.318;21.898;2022-11-20T19:36:07;14.0;;;11.0;;
21120;SDS011;12519;43.318;21.898;2022-11-20T19:40:45;14.0;;;12.0;;
21120;SDS011;12519;43.318;21.898;2022-11-20T19:45:21;14.0;;;12.0;;
21120;SDS011;12519;43.318;21.898;2022-11-20T19:49:58;10.0;;;10.0;;
21120;SDS011;12519;43.318;21.898;2022-11-20T19:54:35;10.0;;;10.0;;
21120;SDS011;12519;43.318;21.898;2022-11-20T19:59:14;10.0;;;10.0;;
21120;SDS011;12519;43.318;21.898;2022-11-20T20:03:53;7.0;;;7.0;;
21120;SDS011;12519;43.318;21.898;2022-11-20T20:08:33;7.0;;;7.0;;
21120;SDS011;12519;43.318;21.898;2022-11-20T20:13:10;8.0;;;8.0;;
21120;SDS011;12519;43.318;21.898;2022-11-20T20:17:46;8.0;;;8.0;;
21120;SDS011;12519;43.318;21.898;2022-11-20T20:22:23;10.0;;;8.0;;
21120;SDS011;12519;43.318;21.898;2022-11-20T20:26:59;10.0;;;8.0;;
21120;SDS011;12519;43.318;21.898;2022-11-20T20:31:36;11.0;;;8.0;;
21120;SDS011;12519;43.318;21.898;2022-11-20T20:36:19;11.0;;;8.0;;
21120;SDS011;12519;43.318;21.898;2022-11-20T20:40:56;12.0;;;8.0;;
21120;SDS011;12519;43.318;21.898;2022-11-20T20:45:32;12.0;;;8.0;;
21120;SDS011;12519;43.318;21.898;2022-11-20T20:50:12;10.0;;;6.0;;
21120;SDS011;12519;43.318;21.898;2022-11-20T20:54:48;10.0;;;6.0;;
21120;SDS011;12519;43.318;21.898;2022-11-20T20:59:24;10.0;;;6.0;;
21120;SDS011;12519;43.318;21.898;2022-11-20T21:04:00;7.0;;;5.0;;
21120;SDS011;12519;43.318;21.898;2022-11-20T21:08:38;7.0;;;5.0;;
21120;SDS011;12519;43.318;21.898;2022-11-20T21:13:16;6.0;;;5.0;;
21120;SDS011;12519;43.318;21.898;2022-11-20T21:17:53;6.0;;;5.0;;
21120;SDS011;12519;43.318;21.898;2022-11-20T21:22:29;6.0;;;5.0;;
21120;SDS011;12519;43.318;21.898;2022-11-20T21:27:06;6.0;;;5.0;;
21120;SDS011;12519;43.318;21.898;2022-11-20T21:31:43;6.0;;;5.0;;
21120;SDS011;12519;43.318;21.898;2022-11-20T21:36:25;6.0;;;5.0;;
21120;SDS011;12519;43.318;21.898;2022-11-20T21:41:11;7.0;;;5.0;;
21120;SDS011;12519;43.318;21.898;2022-11-20T21:45:51;7.0;;;5.0;;
21120;SDS011;12519;43.318;21.898;2022-11-20T21:50:28;8.0;;;5.0;;
21120;SDS011;12519;43.318;21.898;2022-11-20T21:55:06;8.0;;;5.0;;
21120;SDS011;12519;43.318;21.898;2022-11-20T21:59:43;8.0;;;5.0;;
21120;SDS011;12519;43.318;21.898;2022-11-20T22:04:19;8.0;;;5.0;;
21120;SDS011;12519;43.318;21.898;2022-11-20T22:08:56;8.0;;;5.0;;
21120;SDS011;12519;43.318;21.898;2022-11-20T22:13:34;6.0;;;4.0;;
21120;SDS011;12519;43.318;21.898;2022-11-20T22:18:11;6.0;;;4.0;;
21120;SDS011;12519;43.318;21.898;2022-11-20T22:22:47;5.0;;;4.0;;
21120;SDS011;12519;43.318;21.898;2022-11-20T22:27:24;5.0;;;4.0;;
21120;SDS011;12519;43.318;21.898;2022-11-20T22:32:00;4.0;;;4.0;;
21120;SDS011;12519;43.318;21.898;2022-11-20T22:36:39;4.0;;;4.0;;
21120;SDS011;12519;43.318;21.898;2022-11-20T22:41:23;4.0;;;4.0;;
21120;SDS011;12519;43.318;21.898;2022-11-20T22:46:09;4.0;;;4.0;;
21120;SDS011;12519;43.318;21.898;2022-11-20T22:50:47;4.0;;;4.0;;
21120;SDS011;12519;43.318;21.898;2022-11-20T22:55:23;4.0;;;4.0;;
21120;SDS011;12519;43.318;21.898;2022-11-20T22:59:59;3.0;;;3.0;;
21120;SDS011;12519;43.318;21.898;2022-11-20T23:04:35;3.0;;;3.0;;
21120;SDS011;12519;43.318;21.898;2022-11-20T23:09:13;3.0;;;3.0;;
21120;SDS011;12519;43.318;21.898;2022-11-20T23:13:55;2.0;;;2.0;;
21120;SDS011;12519;43.318;21.898;2022-11-20T23:18:36;2.0;;;2.0;;
21120;SDS011;12519;43.318;21.898;2022-11-20T23:23:13;2.0;;;2.0;;
21120;SDS011;12519;43.318;21.898;2022-11-20T23:27:49;2.0;;;2.0;;
21120;SDS011;12519;43.318;21.898;2022-11-20T23:32:25;2.0;;;2.0;;
21120;SDS011;12519;43.318;21.898;2022-11-20T23:37:01;2.0;;;2.0;;
21120;SDS011;12519;43.318;21.898;2022-11-20T23:41:38;3.0;;;3.0;;
21120;SDS011;12519;43.318;21.898;2022-11-20T23:46:14;3.0;;;3.0;;
21120;SDS011;12519;43.318;21.898;2022-11-20T23:50:51;3.0;;;3.0;;
21120;SDS011;12519;43.318;21.898;2022-11-20T23:55:29;3.0;;;3.0;;
